Latest Weather Observations for Casino

IDN60801

Issued at 5:02 pm EST Wednesday 25 May 2016 (issued every 30 minutes, with the page automatically refreshed every 10 minutes)

About weather observations | Map of weather stations | Latest weather observations for NSW | Other Formats
Station Details ID: 058208 Name: CASINO AIRPORT AWS Lat: -28.88 Lon: 153.06 Height: 20.9 m
Data from the previous 72 hours. | See also: Recent months at Casino
Date/Time
EST
Temp
°C
App
Temp
°C
Dew
Point
Rel
Hum
%
Delta-T
°C
Wind Press
QNH
hPa
Press
MSL
hPa
Rain
since 9 am
mm
Dir
 
Spd
km/h
Gust
km/h
Spd
kts
Gust
kts
25/05:00pm 17.2 13.2 0.4 32 7.3 ENE 11 11 6 6 1014.9 1014.8 0.0
25/04:30pm 20.6 17.1 1.0 27 8.9 ENE 9 13 5 7 1014.8 1014.7 0.0
25/04:00pm 23.0 18.8 1.4 24 10.0 ENE 13 15 7 8 1014.7 1014.6 0.0
25/03:30pm 24.3 20.1 -0.8 19 11.3 ENE 11 15 6 8 1014.5 1014.4 0.0
25/03:00pm 25.1 21.2 -1.6 17 11.9 NE 9 15 5 8 1014.9 1014.8 0.0
25/02:30pm 24.8 21.0 -3.6 15 12.2 E 7 11 4 6 1015.1 1015.0 0.0
25/02:00pm 24.5 20.8 -4.7 14 12.2 NNW 6 11 3 6 1015.4 1015.3 0.0
25/01:30pm 24.8 21.0 -3.6 15 12.2 WNW 7 11 4 6 1015.7 1015.6 0.0
25/01:00pm 24.9 21.3 -1.8 17 11.9 N 7 13 4 7 1016.0 1015.9 0.0
25/12:30pm 24.5 20.7 -0.6 19 11.4 NNE 9 13 5 7 1016.4 1016.3 0.0
25/12:00pm 22.9 18.9 -2.6 18 11.0 NNW 9 13 5 7 1016.7 1016.6 0.0
25/11:30am 22.3 18.8 -1.1 21 10.3 N 7 11 4 6 1017.2 1017.1 0.0
25/11:00am 21.9 18.5 1.6 26 9.4 NNW 9 11 5 6 1017.6 1017.5 0.0
25/10:30am 20.3 17.0 2.6 31 8.3 NW 9 13 5 7 1017.9 1017.8 0.0
25/10:00am 18.4 15.3 3.8 38 6.9 NW 9 13 5 7 1018.4 1018.3 0.0
25/09:30am 16.4 13.2 2.8 40 6.2 NW 9 11 5 6 1018.5 1018.4 0.0
25/09:00am 14.1 11.8 4.7 53 4.3 WNW 6 9 3 5 1018.7 1018.6 0.0
25/08:30am 11.3 8.9 5.2 66 2.8 W 7 7 4 4 1019.0 1018.9 0.0
25/08:00am 9.3 6.4 4.5 72 2.1 WNW 9 11 5 6 1018.6 1018.5 0.0
25/07:30am 6.1 2.8 2.7 79 1.4 WNW 9 11 5 6 1018.3 1018.2 0.0
25/07:00am 4.1 0.7 2.1 87 0.8 W 9 11 5 6 1018.2 1018.1 0.0
25/06:30am 2.9 -0.7 0.6 85 0.9 W 9 11 5 6 1018.0 1017.9 0.0
25/06:00am 3.3 -0.2 1.3 87 0.8 W 9 13 5 7 1017.7 1017.6 0.0
25/05:30am 3.6 0.1 1.0 83 1.0 W 9 11 5 6 1017.5 1017.4 0.0
25/05:00am 4.6 1.3 2.6 87 0.8 WNW 9 13 5 7 1017.2 1017.1 0.0
25/04:30am 2.9 -0.3 0.6 85 0.9 W 7 9 4 5 1017.1 1017.0 0.0
25/04:00am 4.5 1.5 2.2 85 0.9 WNW 7 9 4 5 1017.0 1016.9 0.0
25/03:30am 4.5 1.3 3.2 91 0.5 W 9 13 5 7 1016.9 1016.8 0.0
25/03:00am 3.4 0.3 1.4 87 0.8 W 7 9 4 5 1016.9 1016.8 0.0
25/02:30am 3.2 1.2 0.1 80 1.2 CALM 0 0 0 0 1016.9 1016.8 0.0
25/02:00am 5.2 2.3 1.7 78 1.4 WNW 6 9 3 5 1017.0 1016.9 0.0
25/01:30am 7.1 4.2 2.6 73 1.9 WNW 7 13 4 7 1017.1 1017.0 0.0
25/01:00am 8.8 5.1 4.2 73 2.0 WNW 13 19 7 10 1017.0 1016.9 0.0
25/12:30am 9.8 6.5 4.8 71 2.2 WNW 11 15 6 8 1016.9 1016.8 0.0
25/12:00am 10.5 7.3 4.9 68 2.5 WNW 11 17 6 9 1017.0 1016.9 0.0
 
Date/Time
EST
Temp
°C
App
Temp
°C
Dew
Point
Rel
Hum
%
Delta-T
°C
Wind Press
QNH
hPa
Press
MSL
hPa
Rain
since 9 am
mm
Dir
 
Spd
km/h
Gust
km/h
Spd
kts
Gust
kts
24/11:30pm 10.0 6.7 4.6 69 2.4 WNW 11 15 6 8 1017.0 1016.9 0.0
24/11:00pm 8.8 5.7 3.8 71 2.2 WNW 9 13 5 7 1017.0 1016.9 0.0
24/10:30pm 10.7 7.8 4.6 66 2.7 NW 9 13 5 7 1016.9 1016.8 0.0
24/10:00pm 11.2 8.1 5.7 69 2.5 NW 11 15 6 8 1016.9 1016.8 0.0
24/09:30pm 10.6 7.6 5.8 72 2.2 NW 11 15 6 8 1016.8 1016.7 0.0
24/09:00pm 10.4 7.6 5.0 69 2.4 NW 9 11 5 6 1016.7 1016.6 0.0
24/08:30pm 10.9 8.1 5.2 68 2.6 WNW 9 11 5 6 1016.7 1016.6 0.0
24/08:00pm 12.0 8.4 5.2 63 3.1 WNW 13 13 7 7 1016.5 1016.4 0.0
24/07:30pm 11.0 8.4 6.2 72 2.2 WNW 9 13 5 7 1016.3 1016.2 0.0
24/07:00pm 10.9 8.6 5.9 71 2.3 NW 7 9 4 5 1016.1 1016.0 0.0
24/06:30pm 11.4 9.5 5.1 65 2.9 SE 4 6 2 3 1016.0 1015.9 0.0
24/06:00pm 13.6 11.4 6.0 60 3.6 SE 7 7 4 4 1015.9 1015.8 0.0
24/05:30pm 14.6 11.9 5.7 55 4.2 ESE 9 11 5 6 1015.4 1015.3 0.0
24/05:00pm 16.5 12.9 3.2 41 6.1 ESE 11 11 6 6 1015.2 1015.1 0.0
24/04:30pm 20.5 17.1 1.9 29 8.6 ENE 9 11 5 6 1015.1 1015.0 0.0
24/04:00pm 22.7 19.4 -0.1 22 10.3 NE 7 9 4 5 1015.0 1014.9 0.0
24/03:30pm 23.6 19.6 -2.1 18 11.2 NE 9 13 5 7 1015.0 1014.9 0.0
24/03:00pm 24.1 20.1 -2.4 17 11.6 NNE 9 13 5 7 1015.1 1015.0 0.0
24/02:30pm 24.3 19.9 -2.3 17 11.7 N 11 19 6 10 1015.1 1015.0 0.0
24/02:00pm 24.5 21.1 -2.1 17 11.7 NW 6 9 3 5 1015.3 1015.2 0.0
24/01:30pm 23.9 20.2 -2.6 17 11.5 SE 7 11 4 6 1015.5 1015.4 0.0
24/01:00pm 24.1 20.6 -1.7 18 11.4 NNE 7 13 4 7 1015.7 1015.6 0.0
24/12:30pm 23.2 19.7 -1.7 19 10.9 NNW 7 11 4 6 1016.1 1016.0 0.0
24/12:00pm 23.1 19.5 -1.8 19 10.9 SSW 7 13 4 7 1016.7 1016.6 0.0
24/11:30am 22.7 18.4 -1.4 20 10.6 SSE 11 17 6 9 1017.5 1017.4 0.0
24/11:00am 22.4 18.5 0.9 24 9.8 SSE 11 20 6 11 1018.2 1018.1 0.0
24/10:30am 22.3 18.8 1.3 25 9.7 SSE 9 17 5 9 1018.6 1018.5 0.0
24/10:00am 21.7 18.9 3.4 30 8.7 S 7 13 4 7 1019.1 1019.0 0.0
24/09:30am 21.0 18.5 4.6 34 8.0 WNW 7 13 4 7 1019.2 1019.1 0.0
24/09:00am 18.5 17.7 11.6 64 3.8 WNW 7 9 4 5 1019.2 1019.1 0.0
24/08:30am 16.7 16.3 12.5 76 2.3 WNW 6 7 3 4 1019.1 1019.0 0.0
24/08:00am 13.8 13.0 11.0 83 1.5 W 6 9 3 5 1018.7 1018.6 0.0
24/07:30am 11.8 11.3 10.9 94 0.5 WNW 4 7 2 4 1018.4 1018.3 0.0
24/07:00am 8.4 6.6 7.3 93 0.5 WNW 6 7 3 4 1018.0 1017.9 0.0
24/06:30am 7.7 6.9 6.5 92 0.5 CALM 0 0 0 0 1017.6 1017.5 0.0
24/06:00am 7.8 5.6 6.1 89 0.8 NNE 7 9 4 5 1017.3 1017.2 0.0
24/05:30am 9.0 7.1 7.6 91 0.7 NNW 7 9 4 5 1016.8 1016.7 0.0
24/05:00am 9.6 7.8 8.0 90 0.8 SW 7 9 4 5 1016.6 1016.5 0.0
24/04:30am 10.5 9.1 8.8 89 0.8 SW 6 9 3 5 1016.4 1016.3 0.0
24/04:00am 11.9 10.2 10.0 88 1.0 NNW 9 9 5 5 1016.2 1016.1 0.0
24/03:30am 11.8 10.3 9.2 84 1.3 NNW 7 9 4 5 1016.3 1016.2 0.0
24/03:00am 13.6 11.9 11.1 85 1.3 SSE 11 20 6 11 1016.2 1016.1 0.0
24/02:30am 12.9 11.5 9.5 80 1.7 W 7 11 4 6 1015.6 1015.5 0.0
24/02:00am 15.7 14.1 11.5 76 2.3 WNW 11 15 6 8 1015.4 1015.3 0.0
24/01:30am 16.1 14.6 11.9 76 2.3 W 11 15 6 8 1015.3 1015.2 0.0
24/01:00am 16.1 14.6 11.9 76 2.3 WNW 11 15 6 8 1015.3 1015.2 0.0
24/12:30am 16.9 15.9 12.2 74 2.6 WNW 9 13 5 7 1015.2 1015.1 0.0
24/12:00am 16.8 15.4 12.1 74 2.6 WNW 11 13 6 7 1015.3 1015.2 0.0
 
Date/Time
EST
Temp
°C
App
Temp
°C
Dew
Point
Rel
Hum
%
Delta-T
°C
Wind Press
QNH
hPa
Press
MSL
hPa
Rain
since 9 am
mm
Dir
 
Spd
km/h
Gust
km/h
Spd
kts
Gust
kts
23/11:30pm 17.3 16.2 12.0 71 2.9 WNW 9 11 5 6 1015.4 1015.3 0.0
23/11:00pm 18.1 16.4 12.5 70 3.1 NW 13 17 7 9 1015.5 1015.4 0.0
23/10:30pm 17.8 16.6 12.7 72 2.8 WNW 11 15 6 8 1015.4 1015.3 0.0
23/10:00pm 18.0 16.5 11.8 67 3.4 WNW 11 13 6 7 1015.4 1015.3 0.0
23/09:30pm 18.9 18.1 12.9 68 3.4 WNW 9 13 5 7 1015.3 1015.2 0.0
23/09:00pm 16.5 15.7 11.6 73 2.7 WNW 7 11 4 6 1015.3 1015.2 0.0
23/08:30pm 18.7 17.9 12.9 69 3.3 WNW 9 11 5 6 1015.3 1015.2 0.0
23/08:00pm 19.6 19.2 14.2 71 3.1 WNW 9 11 5 6 1015.3 1015.2 0.0
23/07:30pm 18.3 18.1 13.6 74 2.7 WNW 7 11 4 6 1015.2 1015.1 0.0
23/07:00pm 18.5 17.9 13.4 72 2.9 NW 9 11 5 6 1014.8 1014.7 0.0
23/06:30pm 18.7 18.8 14.0 74 2.7 WNW 6 7 3 4 1014.8 1014.7 0.0
23/06:00pm 18.5 18.1 12.5 68 3.3 N 6 6 3 3 1014.5 1014.4 0.0
23/05:30pm 20.4 20.2 13.1 63 4.2 N 6 9 3 5 1014.2 1014.1 0.0
23/05:00pm 22.9 22.3 13.4 55 5.5 NE 9 11 5 6 1014.1 1014.0 0.0
23/04:30pm 24.7 24.3 13.0 48 6.8 NE 7 9 4 5 1014.0 1013.9 0.0
23/04:00pm 27.3 26.9 12.9 41 8.4 NNE 7 11 4 6 1013.9 1013.8 0.0
23/03:30pm 27.8 27.3 12.6 39 8.9 N 7 11 4 6 1013.8 1013.7 0.0
23/03:00pm 28.2 27.1 12.1 37 9.3 NW 9 13 5 7 1013.7 1013.6 0.0
23/02:30pm 28.3 26.8 11.8 36 9.5 NW 11 19 6 10 1013.8 1013.7 0.0
23/02:00pm 28.0 26.8 11.5 35 9.5 WNW 9 17 5 9 1014.2 1014.1 0.0
23/01:30pm 28.3 26.4 11.8 36 9.5 WNW 13 24 7 13 1014.8 1014.7 0.0
23/01:00pm 28.1 27.5 13.6 41 8.6 NW 9 19 5 10 1015.1 1015.0 0.0
23/12:30pm 27.2 26.2 13.5 42 8.1 NNW 11 22 6 12 1015.5 1015.4 0.0
23/12:00pm 26.2 24.7 13.0 44 7.7 NW 13 20 7 11 1016.3 1016.2 0.0
23/11:30am 25.4 23.7 13.6 48 6.9 NW 15 20 8 11 1017.1 1017.0 0.0
23/11:00am 25.0 23.9 14.2 51 6.4 NNW 13 20 7 11 1018.0 1017.9 0.0
23/10:30am 23.4 21.7 13.6 54 5.7 NNW 15 20 8 11 1018.8 1018.7 0.0
23/10:00am 22.3 21.3 14.7 62 4.5 NW 13 17 7 9 1019.4 1019.3 0.0
23/09:30am 19.9 18.8 14.3 70 3.2 NW 13 17 7 9 1019.7 1019.6 0.0
23/09:00am 17.9 17.1 14.0 78 2.2 NW 11 15 6 8 1019.9 1019.8 0.0
23/08:30am 15.3 14.6 13.3 88 1.1 NW 9 13 5 7 1020.3 1020.2 0.0
23/08:00am 12.1 11.7 11.0 93 0.6 NNW 4 6 2 3 1020.4 1020.3 0.0
23/07:30am 10.1 9.9 9.2 94 0.4 CALM 0 0 0 0 1020.5 1020.4 0.0
23/07:00am 9.5 9.2 8.6 94 0.4 CALM 0 0 0 0 1020.5 1020.4 0.0
23/06:30am 9.9 8.4 9.0 94 0.4 W 7 11 4 6 1020.4 1020.3 0.0
23/06:00am 8.6 6.9 7.4 92 0.6 WSW 6 7 3 4 1020.1 1020.0 0.0
23/05:30am 10.1 8.2 9.2 94 0.4 WNW 9 13 5 7 1020.1 1020.0 0.0
23/05:00am 8.7 8.1 7.5 92 0.6 CALM 0 0 0 0 1019.8 1019.7 0.0
23/04:30am 9.3 8.8 7.9 91 0.7 CALM 0 0 0 0 1019.6 1019.5 0.0
23/04:00am 9.7 8.9 8.1 90 0.8 WSW 2 6 1 3 1019.9 1019.8 0.0
23/03:30am 11.4 9.8 10.3 93 0.6 WNW 9 11 5 6 1020.1 1020.0 0.0
23/03:00am 11.6 10.1 10.5 93 0.6 W 9 11 5 6 1020.0 1019.9 0.0
23/02:30am 12.3 11.0 11.4 94 0.5 NW 9 11 5 6 1020.3 1020.2 0.0
23/02:00am 12.1 11.2 11.2 94 0.5 WNW 7 11 4 6 1020.5 1020.4 0.0
23/01:30am 11.6 10.5 10.7 94 0.5 WNW 7 9 4 5 1020.7 1020.6 0.0
23/01:00am 10.8 9.4 9.7 93 0.6 WNW 7 7 4 4 1020.9 1020.8 0.0
23/12:30am 10.7 9.5 9.6 93 0.6 WNW 6 7 3 4 1021.2 1021.1 0.0
23/12:00am 11.3 10.2 10.0 92 0.7 WNW 6 7 3 4 1021.4 1021.3 0.0
 
Date/Time
EST
Temp
°C
App
Temp
°C
Dew
Point
Rel
Hum
%
Delta-T
°C
Wind Press
QNH
hPa
Press
MSL
hPa
Rain
since 9 am
mm
Dir
 
Spd
km/h
Gust
km/h
Spd
kts
Gust
kts
22/11:30pm 11.2 10.1 10.1 93 0.6 WNW 6 7 3 4 1021.7 1021.6 0.0
22/11:00pm 11.1 11.0 9.4 89 0.8 CALM 0 6 0 3 1021.9 1021.8 0.0
22/10:30pm 11.6 11.7 10.0 90 0.8 CALM 0 4 0 2 1021.9 1021.8 0.0
22/10:00pm 11.9 10.9 10.3 90 0.8 SW 6 7 3 4 1022.0 1021.9 0.0
22/09:30pm 11.7 10.4 9.8 88 1.0 SSW 7 9 4 5 1022.0 1021.9 0.0
22/09:00pm 12.8 11.8 10.9 88 1.0 SW 7 9 4 5 1022.0 1021.9 0.0
22/08:30pm 14.6 14.6 12.5 87 1.1 SSE 4 7 2 4 1022.1 1022.0 0.0
22/08:00pm 15.5 15.4 13.2 86 1.3 SE 6 7 3 4 1021.9 1021.8 0.0
22/07:30pm 15.0 14.4 12.3 84 1.5 ESE 7 7 4 4 1022.0 1021.9 0.0
22/07:00pm 15.5 15.2 12.6 83 1.6 ENE 6 7 3 4 1021.9 1021.8 0.0
22/06:30pm 16.4 15.2 12.9 80 1.9 ESE 11 11 6 6 1021.8 1021.7 0.0
22/06:00pm 16.9 15.8 13.2 79 2.1 E 11 13 6 7 1021.7 1021.6 0.0
22/05:30pm 18.2 16.5 13.7 75 2.6 ESE 15 17 8 9 1021.5 1021.4 0.0

Other Formats:

Comma delimited format used in spreadsheet applications
http://www.bom.gov.au/fwo/IDN60801/IDN60801.94573.axf

JavaScript Object Notation format (JSON) in row-major order
http://www.bom.gov.au/fwo/IDN60801/IDN60801.94573.json